createdAt,value
2019-02-19T00:01:09.762Z,21.37
2019-02-19T00:03:40.668Z,22.32
2019-02-19T00:06:10.627Z,20.40
2019-02-19T00:08:39.641Z,29.55
2019-02-19T00:11:15.317Z,21.37
2019-02-19T00:13:44.344Z,16.62
2019-02-19T00:16:15.317Z,19.35
2019-02-19T00:18:50.193Z,21.95
2019-02-19T00:21:23.208Z,22.67
2019-02-19T00:23:52.134Z,21.42
2019-02-19T00:26:21.116Z,20.37
2019-02-19T00:28:55.059Z,20.50
2019-02-19T00:31:26.069Z,19.95
2019-02-19T00:34:01.522Z,19.77
2019-02-19T00:36:32.554Z,21.87
2019-02-19T00:39:07.750Z,19.12
2019-02-19T00:41:37.700Z,23.80
2019-02-19T00:44:06.686Z,18.35
2019-02-19T00:46:41.895Z,20.82
2019-02-19T00:49:10.925Z,24.82
2019-02-19T00:51:42.329Z,20.37
2019-02-19T00:54:22.290Z,20.32
2019-02-19T00:56:52.241Z,24.80
2019-02-19T00:59:21.093Z,19.05
2019-02-19T01:01:54.190Z,18.55
2019-02-19T01:04:25.086Z,20.30
2019-02-19T01:06:53.944Z,24.77
2019-02-19T01:09:23.101Z,19.65
2019-02-19T01:11:52.027Z,19.17
2019-02-19T01:14:21.087Z,18.92
2019-02-19T01:17:02.195Z,16.40
2019-02-19T01:19:31.281Z,23.07
2019-02-19T01:22:00.248Z,22.95
2019-02-19T01:24:36.035Z,22.35
2019-02-19T01:27:04.992Z,19.70
2019-02-19T01:29:50.380Z,17.80
2019-02-19T01:32:26.434Z,18.57
2019-02-19T01:34:55.284Z,17.90
2019-02-19T01:37:25.266Z,18.95
2019-02-19T01:39:54.256Z,22.27
2019-02-19T01:42:23.268Z,17.95
2019-02-19T01:44:53.352Z,21.20
2019-02-19T01:47:24.980Z,21.30
2019-02-19T01:50:00.307Z,16.30
2019-02-19T01:52:39.525Z,17.65
2019-02-19T01:55:08.725Z,16.60
2019-02-19T01:57:39.636Z,18.48
2019-02-19T02:00:11.455Z,17.90
2019-02-19T02:02:44.541Z,19.75
2019-02-19T02:05:14.716Z,16.65
2019-02-19T02:07:44.648Z,15.88
2019-02-19T02:10:15.523Z,15.35
2019-02-19T02:12:53.384Z,13.72
2019-02-19T02:15:23.455Z,18.52
2019-02-19T02:18:04.784Z,18.15
2019-02-19T02:20:42.851Z,18.05
2019-02-19T02:23:12.252Z,16.15
2019-02-19T02:25:42.105Z,14.63
2019-02-19T02:28:13.035Z,15.10
2019-02-19T02:30:42.936Z,14.70
2019-02-19T02:33:36.728Z,15.65
2019-02-19T02:36:11.459Z,14.00
2019-02-19T02:38:40.376Z,14.05
2019-02-19T02:41:09.276Z,15.48
2019-02-19T02:43:40.460Z,13.53
2019-02-19T02:46:09.384Z,14.98
2019-02-19T02:48:38.299Z,14.10
2019-02-19T02:51:07.146Z,14.15
2019-02-19T02:53:39.285Z,15.38
2019-02-19T02:56:11.256Z,15.58
2019-02-19T02:58:40.169Z,13.65
2019-02-19T03:01:11.032Z,11.57
2019-02-19T03:03:45.907Z,12.98
2019-02-19T03:06:29.197Z,15.98
2019-02-19T03:09:01.277Z,15.43
2019-02-19T03:11:30.141Z,13.28
2019-02-19T03:13:59.097Z,12.65
2019-02-19T03:16:29.019Z,17.15
2019-02-19T03:19:01.092Z,13.78
2019-02-19T03:21:30.061Z,11.68
2019-02-19T03:23:59.010Z,13.88
2019-02-19T03:26:27.873Z,14.75
2019-02-19T03:29:02.620Z,11.10
2019-02-19T03:31:32.538Z,13.88
2019-02-19T03:34:01.590Z,17.15
2019-02-19T03:36:30.484Z,13.00
2019-02-19T03:39:08.760Z,13.43
2019-02-19T03:41:49.806Z,15.38
2019-02-19T03:44:18.764Z,14.15
2019-02-19T03:46:48.696Z,14.83
2019-02-19T03:49:35.830Z,13.55
2019-02-19T03:52:11.040Z,14.03
2019-02-19T03:54:48.209Z,14.18
2019-02-19T03:57:18.229Z,11.10
2019-02-19T03:59:48.337Z,14.80
2019-02-19T04:02:17.490Z,13.03
2019-02-19T04:04:48.541Z,11.95
2019-02-19T04:07:20.565Z,12.37
2019-02-19T04:09:56.578Z,13.20
2019-02-19T04:12:31.558Z,15.05
2019-02-19T04:15:15.753Z,16.52
2019-02-19T04:17:52.618Z,11.22
2019-02-19T04:20:27.675Z,14.23
2019-02-19T04:22:56.617Z,15.72
2019-02-19T04:25:25.437Z,12.95
2019-02-19T04:27:54.246Z,15.50
2019-02-19T04:30:23.187Z,14.25
2019-02-19T04:32:51.988Z,13.70
2019-02-19T04:35:24.216Z,12.70
2019-02-19T04:37:53.130Z,14.98
2019-02-19T04:40:21.960Z,13.88
2019-02-19T04:42:50.756Z,13.40
2019-02-19T04:45:19.592Z,12.43
2019-02-19T04:47:48.488Z,13.40
2019-02-19T04:50:17.305Z,14.00
2019-02-19T04:52:46.127Z,13.95
2019-02-19T04:55:15.053Z,12.75
2019-02-19T04:57:43.858Z,14.33
2019-02-19T05:00:13.350Z,16.77
2019-02-19T05:02:42.240Z,14.03
2019-02-19T05:05:11.206Z,14.45
2019-02-19T05:07:42.920Z,16.05
2019-02-19T05:10:11.966Z,14.70
2019-02-19T05:12:40.783Z,11.55
2019-02-19T05:15:10.025Z,11.80
2019-02-19T05:17:38.851Z,17.35
2019-02-19T05:20:08.086Z,14.25
2019-02-19T05:22:37.006Z,15.30
2019-02-19T05:25:06.140Z,16.73
2019-02-19T05:27:38.143Z,24.72
2019-02-19T05:30:07.260Z,13.98
2019-02-19T05:32:36.218Z,15.03
2019-02-19T05:35:06.305Z,11.18
2019-02-19T05:37:36.337Z,16.57
2019-02-19T05:40:11.225Z,16.85
2019-02-19T05:42:41.167Z,13.80
2019-02-19T05:45:11.242Z,14.87
2019-02-19T05:47:41.197Z,15.48
2019-02-19T05:50:10.193Z,12.82
2019-02-19T05:52:39.117Z,16.42
2019-02-19T05:55:09.456Z,13.88
2019-02-19T05:57:38.387Z,12.03
2019-02-19T06:00:08.867Z,13.80
2019-02-19T06:02:43.983Z,14.25
2019-02-19T06:05:20.752Z,12.98
2019-02-19T06:07:49.748Z,13.72
2019-02-19T06:10:25.032Z,12.63
2019-02-19T06:12:54.115Z,14.60
2019-02-19T06:15:31.065Z,15.13
2019-02-19T06:18:01.465Z,14.45
2019-02-19T06:20:30.392Z,12.90
2019-02-19T06:22:59.260Z,14.98
2019-02-19T06:25:28.177Z,16.87
2019-02-19T06:27:57.127Z,12.05
2019-02-19T06:30:26.005Z,15.23
2019-02-19T06:32:58.009Z,13.35
2019-02-19T06:35:28.268Z,16.20
2019-02-19T06:37:57.267Z,15.13
2019-02-19T06:40:28.734Z,18.98
2019-02-19T06:42:58.717Z,14.47
2019-02-19T06:45:27.772Z,15.72
2019-02-19T06:47:57.996Z,13.60
2019-02-19T06:50:37.219Z,14.45
2019-02-19T06:53:21.189Z,14.15
2019-02-19T06:55:51.109Z,15.48
2019-02-19T06:58:23.052Z,17.10
2019-02-19T07:00:52.358Z,17.48
2019-02-19T07:03:37.389Z,15.03
2019-02-19T07:06:17.430Z,15.85
2019-02-19T07:08:47.883Z,14.30
2019-02-19T07:11:16.929Z,15.30
2019-02-19T07:13:45.895Z,12.82
2019-02-19T07:16:20.774Z,20.52
2019-02-19T07:18:49.993Z,15.85
2019-02-19T07:21:39.718Z,16.25
2019-02-19T07:24:14.550Z,15.03
2019-02-19T07:26:44.520Z,15.13
2019-02-19T07:29:15.073Z,15.65
2019-02-19T07:31:45.078Z,12.58
2019-02-19T07:34:21.775Z,14.70
2019-02-19T07:36:50.823Z,16.80
2019-02-19T07:39:19.957Z,16.35
2019-02-19T07:41:48.884Z,13.88
2019-02-19T07:44:40.918Z,15.05
2019-02-19T07:47:13.950Z,17.15
2019-02-19T07:49:56.124Z,13.95
2019-02-19T07:52:32.452Z,15.95
2019-02-19T07:55:02.387Z,14.10
2019-02-19T07:57:32.366Z,16.73
2019-02-19T08:00:04.693Z,15.03
2019-02-19T08:02:35.765Z,10.95
2019-02-19T08:05:05.217Z,14.55
2019-02-19T08:07:34.188Z,14.07
2019-02-19T08:10:10.356Z,13.50
2019-02-19T08:12:39.477Z,13.78
2019-02-19T08:15:09.254Z,13.55
2019-02-19T08:17:39.618Z,13.95
2019-02-19T08:20:15.312Z,20.45
2019-02-19T08:22:39.430Z,15.30
2019-02-19T08:25:09.674Z,20.27
2019-02-19T08:27:38.681Z,14.95
2019-02-19T08:30:10.996Z,15.90
2019-02-19T08:32:39.840Z,18.87
2019-02-19T08:35:08.938Z,14.55
2019-02-19T08:37:39.960Z,13.03
2019-02-19T08:40:09.110Z,16.10
2019-02-19T08:42:41.172Z,14.23
2019-02-19T08:45:10.355Z,25.05
2019-02-19T08:47:42.872Z,14.80
2019-02-19T08:50:12.170Z,17.20
2019-02-19T08:52:41.229Z,17.40
2019-02-19T08:55:12.221Z,18.37
2019-02-19T08:57:41.464Z,18.30
2019-02-19T09:00:18.874Z,19.07
2019-02-19T09:02:47.847Z,17.65
2019-02-19T09:05:22.885Z,16.37
2019-02-19T09:07:51.909Z,13.58
2019-02-19T09:10:22.938Z,13.67
2019-02-19T09:12:51.956Z,15.83
2019-02-19T09:15:22.005Z,15.13
2019-02-19T09:17:52.236Z,12.63
2019-02-19T09:20:27.354Z,22.85
2019-02-19T09:23:05.289Z,49.17
2019-02-19T09:25:34.290Z,22.67
2019-02-19T09:28:06.344Z,16.35
2019-02-19T09:30:38.457Z,13.45
2019-02-19T09:33:07.518Z,18.17
2019-02-19T09:35:38.502Z,13.35
2019-02-19T09:38:07.535Z,13.90
2019-02-19T09:40:36.521Z,11.75
2019-02-19T09:43:05.521Z,14.30
2019-02-19T09:45:42.544Z,27.50
2019-02-19T09:48:12.611Z,17.93
2019-02-19T09:50:46.738Z,16.27
2019-02-19T09:53:20.881Z,14.60
2019-02-19T09:55:50.839Z,17.48
2019-02-19T09:58:19.818Z,13.05
2019-02-19T10:00:54.627Z,15.95
2019-02-19T10:03:24.829Z,16.05
2019-02-19T10:06:00.661Z,15.10
2019-02-19T10:08:30.769Z,13.17
2019-02-19T10:10:59.861Z,16.17
2019-02-19T10:13:43.917Z,14.97
2019-02-19T10:16:24.931Z,16.62
2019-02-19T10:19:09.049Z,19.93
2019-02-19T10:21:39.065Z,17.93
2019-02-19T10:24:09.096Z,17.30
2019-02-19T10:26:41.162Z,18.87
2019-02-19T10:29:13.187Z,16.00
2019-02-19T10:31:42.106Z,18.27
2019-02-19T10:34:12.018Z,15.53
2019-02-19T10:36:42.021Z,15.45
2019-02-19T10:39:16.807Z,14.33
2019-02-19T10:41:45.907Z,23.90
2019-02-19T10:44:14.939Z,18.17
2019-02-19T10:46:43.864Z,19.03
2019-02-19T10:49:12.835Z,14.40
2019-02-19T10:51:41.854Z,17.47
2019-02-19T10:54:14.071Z,16.80
2019-02-19T10:56:46.133Z,16.48
2019-02-19T10:59:15.234Z,28.23
2019-02-19T11:01:44.251Z,15.30
2019-02-19T11:04:23.243Z,20.13
2019-02-19T11:06:53.238Z,12.83
2019-02-19T11:09:22.230Z,16.43
2019-02-19T11:11:53.149Z,18.10
2019-02-19T11:14:22.201Z,17.10
2019-02-19T11:16:51.284Z,14.70
2019-02-19T11:19:27.085Z,19.10
2019-02-19T11:21:56.121Z,21.60
2019-02-19T11:24:27.012Z,15.57
2019-02-19T11:27:04.525Z,13.90
2019-02-19T11:29:33.517Z,16.77
2019-02-19T11:32:02.553Z,17.27
2019-02-19T11:34:32.556Z,17.70
2019-02-19T11:37:01.615Z,15.70
2019-02-19T11:39:30.962Z,16.53
2019-02-19T11:42:04.800Z,31.87
2019-02-19T11:44:34.005Z,18.40
2019-02-19T11:47:03.026Z,17.43
2019-02-19T11:49:32.044Z,17.20
2019-02-19T11:52:10.020Z,13.70
2019-02-19T11:54:51.892Z,16.70
2019-02-19T11:57:24.105Z,15.93
2019-02-19T11:59:55.073Z,16.83
2019-02-19T12:02:32.566Z,26.63
2019-02-19T12:05:00.643Z,21.63
2019-02-19T12:07:29.521Z,17.27
2019-02-19T12:09:58.561Z,15.00
2019-02-19T12:12:28.433Z,16.63
2019-02-19T12:14:57.474Z,13.63
2019-02-19T12:17:28.519Z,21.20
2019-02-19T12:20:04.809Z,21.07
2019-02-19T12:22:33.845Z,18.47
2019-02-19T12:25:02.869Z,19.10
2019-02-19T12:27:31.998Z,19.33
2019-02-19T12:30:02.811Z,17.87
2019-02-19T12:32:31.886Z,17.33
2019-02-19T12:35:00.814Z,17.53
2019-02-19T12:37:29.805Z,16.70
2019-02-19T12:40:00.800Z,20.67
2019-02-19T12:42:29.757Z,19.50
2019-02-19T12:45:05.136Z,25.60
2019-02-19T12:47:35.064Z,17.10
2019-02-19T12:50:04.446Z,23.20
2019-02-19T12:52:33.400Z,21.70
2019-02-19T12:55:07.168Z,15.37
2019-02-19T12:57:36.878Z,19.90
2019-02-19T13:00:18.386Z,18.27
2019-02-19T13:02:49.364Z,20.90
2019-02-19T13:05:24.325Z,17.90
2019-02-19T13:07:59.485Z,19.23
2019-02-19T13:10:29.550Z,18.83
2019-02-19T13:13:03.689Z,17.87
2019-02-19T13:15:32.817Z,23.47
2019-02-19T13:18:01.961Z,18.30
2019-02-19T13:20:32.125Z,17.03
2019-02-19T13:23:03.113Z,20.03
2019-02-19T13:25:33.120Z,26.80
2019-02-19T13:28:02.094Z,16.67
2019-02-19T13:30:32.123Z,18.40
2019-02-19T13:33:03.344Z,17.97
2019-02-19T13:35:34.442Z,26.37
2019-02-19T13:38:09.869Z,16.97
2019-02-19T13:40:41.909Z,21.30
2019-02-19T13:43:15.173Z,22.73
2019-02-19T13:45:44.279Z,17.70
2019-02-19T13:48:25.806Z,19.10
2019-02-19T13:50:54.860Z,21.20
2019-02-19T13:53:45.856Z,20.53
2019-02-19T13:56:14.957Z,25.63
2019-02-19T13:58:43.943Z,27.83
2019-02-19T14:01:12.947Z,21.60
2019-02-19T14:03:42.048Z,21.40
2019-02-19T14:06:11.026Z,18.73
2019-02-19T14:08:40.963Z,21.87
2019-02-19T14:11:09.959Z,24.50
2019-02-19T14:13:52.438Z,21.80
2019-02-19T14:16:29.478Z,24.87
2019-02-19T14:19:06.718Z,23.70
2019-02-19T14:21:54.201Z,24.67
2019-02-19T14:24:48.477Z,22.82
2019-02-19T14:27:35.167Z,21.40
2019-02-19T14:30:20.040Z,25.40
2019-02-19T14:33:05.720Z,23.23
2019-02-19T14:35:47.170Z,23.33
2019-02-19T14:38:41.051Z,22.10
2019-02-19T14:41:41.211Z,28.43
2019-02-19T14:44:20.992Z,22.55
2019-02-19T14:47:21.125Z,27.42
2019-02-19T14:50:02.144Z,21.33
2019-02-19T14:52:56.028Z,23.33
2019-02-19T14:55:41.577Z,21.48
2019-02-19T14:58:15.858Z,22.27
2019-02-19T15:01:09.891Z,23.17
2019-02-19T15:03:56.756Z,23.60
2019-02-19T15:06:43.338Z,24.57
2019-02-19T15:09:40.561Z,23.20
2019-02-19T15:12:33.072Z,21.20
2019-02-19T15:15:20.985Z,25.23
2019-02-19T15:18:11.041Z,27.73
2019-02-19T15:21:15.542Z,22.70
2019-02-19T15:24:14.651Z,22.48
2019-02-19T15:27:01.332Z,21.20
2019-02-19T15:29:52.436Z,22.80
2019-02-19T15:32:39.482Z,23.83
2019-02-19T15:35:24.108Z,29.13
2019-02-19T15:38:25.277Z,19.05
2019-02-19T15:41:19.376Z,21.52
2019-02-19T15:43:58.768Z,19.97
2019-02-19T15:46:45.541Z,23.03
2019-02-19T15:49:32.432Z,22.17
2019-02-19T15:52:19.538Z,21.63
2019-02-19T15:55:07.546Z,22.23
2019-02-19T15:58:04.743Z,21.30
2019-02-19T16:00:46.985Z,22.80
2019-02-19T16:03:43.983Z,23.42
2019-02-19T16:06:37.888Z,25.70
2019-02-19T16:09:40.629Z,23.42
2019-02-19T16:12:44.801Z,20.52
2019-02-19T16:15:48.294Z,23.22
2019-02-19T16:18:36.350Z,21.52
2019-02-19T16:21:29.629Z,23.27
2019-02-19T16:24:16.437Z,21.27
2019-02-19T16:27:03.870Z,19.60
2019-02-19T16:29:54.757Z,22.02
2019-02-19T16:33:00.921Z,22.85
2019-02-19T16:35:38.681Z,22.75
2019-02-19T16:38:29.408Z,21.70
2019-02-19T16:41:20.784Z,19.27
2019-02-19T16:44:08.838Z,24.65
2019-02-19T16:46:52.620Z,24.45
2019-02-19T16:49:31.375Z,26.25
2019-02-19T16:52:06.505Z,23.25
2019-02-19T16:54:50.183Z,24.72
2019-02-19T16:57:26.478Z,22.82
2019-02-19T17:00:08.405Z,26.10
2019-02-19T17:02:51.704Z,22.62
2019-02-19T17:05:52.107Z,26.27
2019-02-19T17:08:46.290Z,24.80
2019-02-19T17:11:34.785Z,29.57
2019-02-19T17:14:16.780Z,26.12
2019-02-19T17:17:03.766Z,24.60
2019-02-19T17:19:51.873Z,30.60
2019-02-19T17:22:32.291Z,21.27
2019-02-19T17:25:20.569Z,22.20
2019-02-19T17:28:05.531Z,23.38
2019-02-19T17:30:58.287Z,24.40
2019-02-19T17:33:58.214Z,24.50
2019-02-19T17:36:53.832Z,25.32
2019-02-19T17:39:33.349Z,24.43
2019-02-19T17:42:09.597Z,23.60
2019-02-19T17:44:49.253Z,23.85
2019-02-19T17:47:48.721Z,23.75
2019-02-19T17:50:38.784Z,25.43
2019-02-19T17:53:16.489Z,24.98
2019-02-19T17:56:05.483Z,23.87
2019-02-19T17:58:54.314Z,23.80
2019-02-19T18:01:41.170Z,24.57
2019-02-19T18:04:18.450Z,25.00
2019-02-19T18:07:14.837Z,23.98
2019-02-19T18:09:57.823Z,23.77
2019-02-19T18:12:48.952Z,24.75
2019-02-19T18:15:39.173Z,28.40
2019-02-19T18:18:23.276Z,21.42
2019-02-19T18:20:55.613Z,31.48
2019-02-19T18:23:24.545Z,27.42
2019-02-19T18:25:53.421Z,29.23
2019-02-19T18:28:22.362Z,22.67
2019-02-19T18:30:51.238Z,19.37
2019-02-19T18:33:21.223Z,16.55
2019-02-19T18:35:50.161Z,17.85
2019-02-19T18:38:19.005Z,17.85
2019-02-19T18:40:47.847Z,17.37
2019-02-19T18:43:16.920Z,18.25
2019-02-19T18:45:45.774Z,17.62
2019-02-19T18:48:21.878Z,16.70
2019-02-19T18:50:58.107Z,18.20
2019-02-19T18:53:21.693Z,17.92
2019-02-19T18:56:01.817Z,19.40
2019-02-19T18:58:35.975Z,21.12
2019-02-19T19:01:08.648Z,22.40
2019-02-19T19:03:42.557Z,15.98
2019-02-19T19:06:20.012Z,21.40
2019-02-19T19:08:50.186Z,18.27
2019-02-19T19:11:21.067Z,18.52
2019-02-19T19:13:52.106Z,18.52
2019-02-19T19:16:21.196Z,18.65
2019-02-19T19:19:12.549Z,17.60
2019-02-19T19:21:44.821Z,18.70
2019-02-19T19:24:24.989Z,19.23
2019-02-19T19:27:02.535Z,20.20
2019-02-19T19:29:32.481Z,23.12
2019-02-19T19:32:01.444Z,19.15
2019-02-19T19:34:30.403Z,17.05
2019-02-19T19:37:01.050Z,18.10
2019-02-19T19:39:30.131Z,19.35
2019-02-19T19:41:59.146Z,19.85
2019-02-19T19:44:29.277Z,18.35
2019-02-19T19:46:58.377Z,21.75
2019-02-19T19:49:29.266Z,22.77
2019-02-19T19:52:11.094Z,20.68
2019-02-19T19:54:40.194Z,19.92
2019-02-19T19:57:09.422Z,21.55
2019-02-19T19:59:40.313Z,17.77
2019-02-19T20:02:12.383Z,24.02
2019-02-19T20:04:41.208Z,19.80
2019-02-19T20:07:10.089Z,20.35
2019-02-19T20:09:38.961Z,21.40
2019-02-19T20:12:07.902Z,22.80
2019-02-19T20:14:38.700Z,19.70
2019-02-19T20:17:07.694Z,25.08
2019-02-19T20:19:36.555Z,26.17
2019-02-19T20:22:06.560Z,22.95
2019-02-19T20:24:35.496Z,21.62
2019-02-19T20:27:05.818Z,26.52
2019-02-19T20:29:36.725Z,22.25
2019-02-19T20:32:08.078Z,24.00
2019-02-19T20:34:37.089Z,23.75
2019-02-19T20:37:06.165Z,21.00
2019-02-19T20:39:35.177Z,22.15
2019-02-19T20:42:04.130Z,29.70
2019-02-19T20:44:33.069Z,19.55
2019-02-19T20:47:02.157Z,22.35
2019-02-19T20:49:31.054Z,21.00
2019-02-19T20:52:00.184Z,23.32
2019-02-19T20:54:31.302Z,18.92
2019-02-19T20:57:03.210Z,21.33
2019-02-19T20:59:32.158Z,22.07
2019-02-19T21:02:01.096Z,22.52
2019-02-19T21:04:31.501Z,25.48
2019-02-19T21:07:00.742Z,18.87
2019-02-19T21:09:29.774Z,18.25
2019-02-19T21:11:59.985Z,19.73
2019-02-19T21:14:30.856Z,20.30
2019-02-19T21:17:00.805Z,18.07
2019-02-19T21:19:29.750Z,20.15
2019-02-19T21:21:59.635Z,20.20
2019-02-19T21:24:36.658Z,19.65
2019-02-19T21:27:05.627Z,21.20
2019-02-19T21:29:34.565Z,23.02
2019-02-19T21:32:03.479Z,25.05
2019-02-19T21:34:32.386Z,21.12
2019-02-19T21:37:03.333Z,18.50
2019-02-19T21:39:33.410Z,20.10
2019-02-19T21:42:05.561Z,17.77
2019-02-19T21:44:34.426Z,17.52
2019-02-19T21:47:05.173Z,16.67
2019-02-19T21:49:34.077Z,14.80
2019-02-19T21:52:02.967Z,16.97
2019-02-19T21:54:31.912Z,17.73
2019-02-19T21:57:01.874Z,16.00
2019-02-19T21:59:30.886Z,16.32
2019-02-19T22:01:59.800Z,15.43
2019-02-19T22:04:32.092Z,16.97
2019-02-19T22:07:02.554Z,14.80
2019-02-19T22:09:31.581Z,18.00
2019-02-19T22:12:00.571Z,19.82
2019-02-19T22:14:29.505Z,15.72
2019-02-19T22:16:58.481Z,16.65
2019-02-19T22:19:27.421Z,15.32
2019-02-19T22:22:05.911Z,15.93
2019-02-19T22:24:35.568Z,18.10
2019-02-19T22:27:06.251Z,14.43
2019-02-19T22:29:35.222Z,13.93
2019-02-19T22:32:04.678Z,13.40
2019-02-19T22:34:37.983Z,14.70
2019-02-19T22:37:06.966Z,14.18
2019-02-19T22:39:36.007Z,13.80
2019-02-19T22:42:04.985Z,13.25
2019-02-19T22:44:33.845Z,14.90
2019-02-19T22:47:02.715Z,16.62
2019-02-19T22:49:31.593Z,14.47
2019-02-19T22:52:00.505Z,17.52
2019-02-19T22:54:53.303Z,15.08
2019-02-19T22:57:22.141Z,14.70
2019-02-19T22:59:51.015Z,15.03
2019-02-19T23:02:25.228Z,15.20
2019-02-19T23:04:54.329Z,14.05
2019-02-19T23:07:23.270Z,13.78
2019-02-19T23:09:52.259Z,16.52
2019-02-19T23:12:21.204Z,17.40
2019-02-19T23:14:50.081Z,13.70
2019-02-19T23:17:19.031Z,15.90
2019-02-19T23:19:47.877Z,17.45
2019-02-19T23:22:21.726Z,14.18
2019-02-19T23:24:47.435Z,15.50
2019-02-19T23:27:16.293Z,17.15
2019-02-19T23:29:45.197Z,12.58
2019-02-19T23:32:17.186Z,13.18
2019-02-19T23:34:47.665Z,13.95
2019-02-19T23:37:22.002Z,16.10
2019-02-19T23:39:50.877Z,15.98
2019-02-19T23:42:19.770Z,12.43
2019-02-19T23:44:48.629Z,15.40
2019-02-19T23:47:17.471Z,14.00
2019-02-19T23:49:46.327Z,14.78
2019-02-19T23:52:15.180Z,16.20
2019-02-19T23:54:44.243Z,18.62
2019-02-19T23:57:13.101Z,18.15
2019-02-19T23:59:41.981Z,12.65
